Time;durP1;ratioP1;P1;durP2;ratioP2;P2;SDS_P1;SDS_P2;PMS_P1;PMS_P2;Temp;Humidity;BMP_temperature;BMP_pressure;BME280_temperature;BME280_humidity;BME280_pressure;Samples;Min_cycle;Max_cycle;Signal;HPM_P1;HPM_P2
2022/02/15 00:00:22;;;;;;;6.18;5.55;;;;;;;;;;5015129;28;20092;-58
2022/02/15 00:02:49;;;;;;;7.55;6.85;;;;;;;;;;5016150;28;20063;-60
2022/02/15 00:05:14;;;;;;;6.60;6.10;;;;;;;;;;5018214;28;20434;-60
2022/02/15 00:07:40;;;;;;;6.05;5.43;;;;;;;;;;5018809;28;20037;-60
2022/02/15 00:10:08;;;;;;;6.05;5.55;;;;;;;;;;5017636;28;20048;-60
2022/02/15 00:12:34;;;;;;;6.43;5.90;;;;;;;;;;5017450;28;20037;-60
2022/02/15 00:14:59;;;;;;;6.93;6.25;;;;;;;;;;5017952;28;20045;-61
2022/02/15 00:17:24;;;;;;;6.20;5.70;;;;;;;;;;5016179;28;20037;-60
2022/02/15 00:19:50;;;;;;;7.30;6.15;;;;;;;;;;5012753;28;20037;-60
2022/02/15 00:22:15;;;;;;;11.00;6.60;;;;;;;;;;5016036;28;20064;-60
2022/02/15 00:24:41;;;;;;;7.05;6.45;;;;;;;;;;5019118;28;20133;-60
2022/02/15 00:27:06;;;;;;;6.53;5.93;;;;;;;;;;5015446;28;20033;-60
2022/02/15 00:29:32;;;;;;;7.55;6.85;;;;;;;;;;5019069;28;20108;-60
2022/02/15 00:31:57;;;;;;;7.38;6.78;;;;;;;;;;5026411;28;20103;-60
2022/02/15 00:34:23;;;;;;;8.10;6.82;;;;;;;;;;5016262;28;20087;-60
2022/02/15 00:36:48;;;;;;;6.03;5.55;;;;;;;;;;5015960;28;20121;-60
2022/02/15 00:39:13;;;;;;;7.88;6.97;;;;;;;;;;5017282;28;20033;-60
2022/02/15 00:41:39;;;;;;;10.75;6.45;;;;;;;;;;5016607;28;20080;-60
2022/02/15 00:44:04;;;;;;;8.18;7.45;;;;;;;;;;5015182;28;20148;-60
2022/02/15 00:46:29;;;;;;;6.45;5.85;;;;;;;;;;5014449;28;20032;-60
2022/02/15 00:48:55;;;;;;;6.32;5.72;;;;;;;;;;5015848;28;20068;-60
2022/02/15 00:51:20;;;;;;;7.47;6.10;;;;;;;;;;5019163;28;20042;-60
2022/02/15 00:53:46;;;;;;;7.03;6.47;;;;;;;;;;5015926;28;20084;-60
2022/02/15 00:56:11;;;;;;;6.85;6.25;;;;;;;;;;5017365;28;20079;-60
2022/02/15 00:58:37;;;;;;;7.13;6.53;;;;;;;;;;5014950;28;20493;-60
2022/02/15 01:01:02;;;;;;;6.97;6.40;;;;;;;;;;5015855;28;21005;-59
2022/02/15 01:03:28;;;;;;;6.45;5.85;;;;;;;;;;5015071;28;20042;-59
2022/02/15 01:05:54;;;;;;;6.38;5.80;;;;;;;;;;5016121;28;20034;-58
2022/02/15 01:08:19;;;;;;;6.63;6.13;;;;;;;;;;5017859;28;20201;-59
2022/02/15 01:10:46;;;;;;;11.15;6.45;;;;;;;;;;5013797;28;20931;-59
2022/02/15 01:13:12;;;;;;;6.90;6.32;;;;;;;;;;5013614;28;20490;-59
2022/02/15 01:15:38;;;;;;;7.32;6.72;;;;;;;;;;5012494;28;20444;-59
2022/02/15 01:18:03;;;;;;;7.50;6.82;;;;;;;;;;5015559;28;20048;-59
2022/02/15 01:20:29;;;;;;;6.00;5.50;;;;;;;;;;5015139;28;20041;-59
2022/02/15 01:22:55;;;;;;;7.25;6.60;;;;;;;;;;5014477;28;20527;-59
2022/02/15 01:25:21;;;;;;;7.20;6.60;;;;;;;;;;5013493;28;20033;-59
2022/02/15 01:27:46;;;;;;;9.93;6.78;;;;;;;;;;5014882;28;20037;-59
2022/02/15 01:30:12;;;;;;;8.18;7.40;;;;;;;;;;5014620;28;20055;-59
2022/02/15 01:32:37;;;;;;;6.15;5.65;;;;;;;;;;5012522;28;20121;-59
2022/02/15 01:35:03;;;;;;;7.47;6.85;;;;;;;;;;5015426;28;20619;-59
2022/02/15 01:37:29;;;;;;;6.82;6.22;;;;;;;;;;5015481;28;20431;-59
2022/02/15 01:39:54;;;;;;;8.68;7.97;;;;;;;;;;5013027;28;20037;-60
2022/02/15 01:42:19;;;;;;;7.35;6.68;;;;;;;;;;5014068;28;20463;-59
2022/02/15 01:44:46;;;;;;;6.90;6.30;;;;;;;;;;5012348;28;20039;-59
2022/02/15 01:47:23;;;;;;;6.88;6.28;;;;;;;;;;5016890;28;20025;-59
2022/02/15 01:49:49;;;;;;;6.40;5.90;;;;;;;;;;5018686;28;20045;-59
2022/02/15 01:52:14;;;;;;;9.13;7.55;;;;;;;;;;5019577;28;20041;-60
2022/02/15 01:54:40;;;;;;;8.85;8.05;;;;;;;;;;5018737;28;20041;-59
2022/02/15 01:57:05;;;;;;;7.82;7.13;;;;;;;;;;5019468;28;20045;-60
2022/02/15 01:59:32;;;;;;;7.53;6.55;;;;;;;;;;5013050;28;20033;-60
2022/02/15 02:01:58;;;;;;;7.32;6.72;;;;;;;;;;5012755;28;20041;-60
2022/02/15 02:07:07;;;;;;;7.70;6.95;;;;;;;;;;5012388;28;20537;-60
2022/02/15 02:09:33;;;;;;;6.43;5.88;;;;;;;;;;5013615;28;20176;-60
2022/02/15 02:11:59;;;;;;;7.78;7.18;;;;;;;;;;5014580;28;20502;-60
2022/02/15 02:14:25;;;;;;;7.85;6.50;;;;;;;;;;5014633;28;20104;-60
2022/02/15 02:16:50;;;;;;;7.85;7.13;;;;;;;;;;5013432;28;20121;-60
2022/02/15 02:19:15;;;;;;;7.35;6.75;;;;;;;;;;5013257;28;20484;-61
2022/02/15 02:21:41;;;;;;;7.18;6.50;;;;;;;;;;5012583;28;20057;-60
2022/02/15 02:24:07;;;;;;;7.32;6.72;;;;;;;;;;5014832;28;20033;-60
2022/02/15 02:26:32;;;;;;;7.03;6.32;;;;;;;;;;5012539;28;20025;-60
2022/02/15 02:28:58;;;;;;;7.70;7.07;;;;;;;;;;5012075;28;20072;-60
2022/02/15 02:31:23;;;;;;;7.05;6.38;;;;;;;;;;5014330;28;20040;-60
2022/02/15 02:33:49;;;;;;;8.15;7.00;;;;;;;;;;5012310;28;20041;-60
2022/02/15 02:36:15;;;;;;;7.78;6.78;;;;;;;;;;5014585;28;20041;-60
2022/02/15 02:38:40;;;;;;;6.00;5.40;;;;;;;;;;5013782;28;20060;-60
2022/02/15 02:41:05;;;;;;;7.22;6.03;;;;;;;;;;5015714;28;20042;-60
2022/02/15 02:43:31;;;;;;;6.13;5.63;;;;;;;;;;5015467;28;20030;-59
2022/02/15 02:45:56;;;;;;;6.78;6.18;;;;;;;;;;5018271;28;20037;-60
2022/02/15 02:48:22;;;;;;;6.70;6.10;;;;;;;;;;5032433;28;20033;-61
2022/02/15 02:50:47;;;;;;;5.68;5.25;;;;;;;;;;5019068;28;20250;-60
2022/02/15 02:53:16;;;;;;;8.15;6.90;;;;;;;;;;5018667;28;20102;-60
2022/02/15 02:55:41;;;;;;;6.30;5.78;;;;;;;;;;5019004;28;20072;-60
2022/02/15 02:58:07;;;;;;;6.63;6.03;;;;;;;;;;5021085;28;20124;-60
2022/02/15 03:00:32;;;;;;;7.15;6.55;;;;;;;;;;5018885;28;20048;-64
2022/02/15 03:03:00;;;;;;;7.15;6.47;;;;;;;;;;5021524;28;20472;-64
2022/02/15 03:05:25;;;;;;;5.82;5.32;;;;;;;;;;5016947;28;20036;-64
2022/02/15 03:07:50;;;;;;;6.57;5.97;;;;;;;;;;5020324;28;20033;-60
2022/02/15 03:10:16;;;;;;;6.50;5.90;;;;;;;;;;5019314;28;20037;-60
2022/02/15 03:12:41;;;;;;;7.30;5.65;;;;;;;;;;5031829;28;20039;-60
2022/02/15 03:15:07;;;;;;;5.65;5.15;;;;;;;;;;5018233;28;20042;-61
2022/02/15 03:17:32;;;;;;;6.00;5.50;;;;;;;;;;5016810;28;20042;-60
2022/02/15 03:19:58;;;;;;;6.25;5.43;;;;;;;;;;5015008;28;20108;-60
2022/02/15 03:22:25;;;;;;;5.97;5.47;;;;;;;;;;5015935;28;20033;-60
2022/02/15 03:24:50;;;;;;;6.70;6.10;;;;;;;;;;5017696;28;20033;-60
2022/02/15 03:27:16;;;;;;;6.53;5.93;;;;;;;;;;5019770;28;20510;-60
2022/02/15 03:29:41;;;;;;;6.53;5.95;;;;;;;;;;5015929;28;20721;-60
2022/02/15 03:32:07;;;;;;;6.82;6.22;;;;;;;;;;5016216;28;20038;-60
2022/02/15 03:34:32;;;;;;;9.65;5.45;;;;;;;;;;5019316;28;20232;-60
2022/02/15 03:36:57;;;;;;;6.10;5.57;;;;;;;;;;5016309;28;20049;-60
2022/02/15 03:39:23;;;;;;;7.22;5.60;;;;;;;;;;5018733;28;20356;-60
2022/02/15 03:44:32;;;;;;;8.40;6.90;;;;;;;;;;5015985;28;20640;-60
2022/02/15 03:46:58;;;;;;;6.57;6.07;;;;;;;;;;5017860;28;20045;-60
2022/02/15 03:49:23;;;;;;;7.07;6.38;;;;;;;;;;5018040;28;20454;-60
2022/02/15 03:51:49;;;;;;;6.38;5.70;;;;;;;;;;5016572;28;20108;-60
2022/02/15 03:54:15;;;;;;;6.60;6.05;;;;;;;;;;5018057;28;20388;-60
2022/02/15 03:56:40;;;;;;;9.07;6.32;;;;;;;;;;5017111;28;20022;-60
2022/02/15 03:59:06;;;;;;;6.03;5.53;;;;;;;;;;5017124;28;20057;-60
2022/02/15 04:01:33;;;;;;;6.20;5.70;;;;;;;;;;5018220;28;20033;-60
2022/02/15 04:03:58;;;;;;;6.43;5.82;;;;;;;;;;5018273;28;20442;-60
2022/02/15 04:06:23;;;;;;;7.28;6.70;;;;;;;;;;5017942;28;20040;-60
2022/02/15 04:08:49;;;;;;;9.43;6.95;;;;;;;;;;5015883;28;20041;-60
2022/02/15 04:11:14;;;;;;;6.38;5.90;;;;;;;;;;5019768;28;20138;-60
2022/02/15 04:13:39;;;;;;;6.50;6.00;;;;;;;;;;5018316;28;20536;-60
2022/02/15 04:16:06;;;;;;;6.63;6.03;;;;;;;;;;5016637;28;20076;-60
2022/02/15 04:18:32;;;;;;;5.75;5.25;;;;;;;;;;5016484;28;20048;-59
2022/02/15 04:20:58;;;;;;;5.65;5.13;;;;;;;;;;5016876;28;20041;-60
2022/02/15 04:23:23;;;;;;;6.45;5.95;;;;;;;;;;5014994;28;20100;-59
2022/02/15 04:25:48;;;;;;;5.88;5.38;;;;;;;;;;5016383;28;20034;-59
2022/02/15 04:28:14;;;;;;;5.70;5.15;;;;;;;;;;5016640;28;20062;-59
2022/02/15 04:30:39;;;;;;;5.30;4.80;;;;;;;;;;5015687;28;20080;-59
2022/02/15 04:33:06;;;;;;;5.63;5.13;;;;;;;;;;5014024;28;20041;-59
2022/02/15 04:35:31;;;;;;;7.90;5.78;;;;;;;;;;5013909;28;20771;-59
2022/02/15 04:37:57;;;;;;;7.05;5.82;;;;;;;;;;5016296;28;20041;-59
2022/02/15 04:40:22;;;;;;;5.90;5.40;;;;;;;;;;5017400;28;20460;-60
2022/02/15 04:42:48;;;;;;;5.63;5.13;;;;;;;;;;5017458;28;20044;-59
2022/02/15 04:45:13;;;;;;;6.68;6.15;;;;;;;;;;5017171;28;20038;-59
2022/02/15 04:47:40;;;;;;;6.18;5.57;;;;;;;;;;5015730;28;20026;-59
2022/02/15 04:50:06;;;;;;;6.05;5.13;;;;;;;;;;5017852;28;20025;-59
2022/02/15 04:52:31;;;;;;;6.82;6.25;;;;;;;;;;5014930;28;20494;-59
2022/02/15 04:54:57;;;;;;;8.30;6.72;;;;;;;;;;5013028;28;20148;-59
2022/02/15 04:57:22;;;;;;;7.68;5.78;;;;;;;;;;5014731;28;20045;-59
2022/02/15 04:59:48;;;;;;;4.90;4.50;;;;;;;;;;5016173;28;20041;-63
2022/02/15 05:02:13;;;;;;;6.00;5.50;;;;;;;;;;5016221;28;20335;-63
2022/02/15 05:04:50;;;;;;;5.82;5.32;;;;;;;;;;5014015;28;20037;-63
2022/02/15 05:07:20;;;;;;;6.05;5.55;;;;;;;;;;5017545;28;20053;-59
2022/02/15 05:09:46;;;;;;;5.32;4.90;;;;;;;;;;5017216;28;20056;-62
2022/02/15 05:12:13;;;;;;;5.18;4.75;;;;;;;;;;5014739;28;20219;-63
2022/02/15 05:14:39;;;;;;;5.70;5.20;;;;;;;;;;5015203;28;20037;-64
2022/02/15 05:17:05;;;;;;;6.47;5.90;;;;;;;;;;5014410;28;20580;-64
2022/02/15 05:19:31;;;;;;;5.93;5.43;;;;;;;;;;5014988;28;20041;-63
2022/02/15 05:21:57;;;;;;;5.60;5.13;;;;;;;;;;5012082;28;20049;-63
2022/02/15 05:24:22;;;;;;;6.22;5.72;;;;;;;;;;5012968;28;20119;-63
2022/02/15 05:26:48;;;;;;;6.07;5.57;;;;;;;;;;5013209;28;20056;-63
2022/02/15 05:29:13;;;;;;;6.18;5.68;;;;;;;;;;5022212;28;20041;-63
2022/02/15 05:31:39;;;;;;;6.20;5.68;;;;;;;;;;5020107;28;20029;-63
2022/02/15 05:34:05;;;;;;;6.53;5.93;;;;;;;;;;5010445;28;20029;-63
2022/02/15 05:36:31;;;;;;;6.43;5.93;;;;;;;;;;5021595;28;20029;-63
2022/02/15 05:38:57;;;;;;;6.03;5.53;;;;;;;;;;5028526;28;20029;-63
2022/02/15 05:41:22;;;;;;;6.97;6.28;;;;;;;;;;5018432;28;20127;-63
2022/02/15 05:43:47;;;;;;;6.75;5.55;;;;;;;;;;5015460;28;20421;-63
2022/02/15 05:46:13;;;;;;;5.32;4.82;;;;;;;;;;5020862;28;20455;-62
2022/02/15 05:48:38;;;;;;;5.75;5.28;;;;;;;;;;5020932;28;20030;-62
2022/02/15 05:51:03;;;;;;;6.10;5.60;;;;;;;;;;5019383;28;20045;-63
2022/02/15 05:53:30;;;;;;;4.68;4.28;;;;;;;;;;5020163;28;20092;-63
2022/02/15 05:55:59;;;;;;;5.93;5.43;;;;;;;;;;5019845;28;20487;-63
2022/02/15 05:58:29;;;;;;;5.20;4.78;;;;;;;;;;5019660;28;20040;-63
2022/02/15 06:00:56;;;;;;;5.70;5.13;;;;;;;;;;5017795;28;20072;-63
2022/02/15 06:06:06;;;;;;;6.53;6.03;;;;;;;;;;5015587;28;20038;-63
2022/02/15 06:08:31;;;;;;;5.65;5.15;;;;;;;;;;5017273;28;20037;-63
2022/02/15 06:10:57;;;;;;;6.32;5.72;;;;;;;;;;5022242;28;20444;-62
2022/02/15 06:13:23;;;;;;;5.65;5.15;;;;;;;;;;5018059;28;20053;-63
2022/02/15 06:15:48;;;;;;;6.25;5.75;;;;;;;;;;5016997;28;20037;-63
2022/02/15 06:18:13;;;;;;;5.25;4.60;;;;;;;;;;5019162;28;20069;-62
2022/02/15 06:20:40;;;;;;;6.32;5.28;;;;;;;;;;5015641;28;20040;-61
2022/02/15 06:23:05;;;;;;;5.63;5.13;;;;;;;;;;5018520;28;20026;-63
2022/02/15 06:25:31;;;;;;;5.97;5.57;;;;;;;;;;5018066;28;20034;-63
2022/02/15 06:27:56;;;;;;;5.78;5.25;;;;;;;;;;5017522;28;20041;-62
2022/02/15 06:30:22;;;;;;;6.38;5.65;;;;;;;;;;5018826;28;20127;-61
2022/02/15 06:32:48;;;;;;;6.78;6.15;;;;;;;;;;5017161;28;20045;-61
2022/02/15 06:35:14;;;;;;;5.80;5.20;;;;;;;;;;5017253;28;20026;-62
2022/02/15 06:37:43;;;;;;;6.32;5.25;;;;;;;;;;5018113;28;20033;-62
2022/02/15 06:40:09;;;;;;;6.07;5.57;;;;;;;;;;5018794;28;20042;-62
2022/02/15 06:42:35;;;;;;;5.80;5.30;;;;;;;;;;5025858;28;20048;-62
2022/02/15 06:45:01;;;;;;;5.47;4.90;;;;;;;;;;5018319;28;20458;-62
2022/02/15 06:47:26;;;;;;;6.35;5.85;;;;;;;;;;5015140;28;20048;-61
2022/02/15 06:49:52;;;;;;;5.78;5.20;;;;;;;;;;5015151;28;20034;-61
2022/02/15 06:52:17;;;;;;;6.05;5.55;;;;;;;;;;5016799;28;20034;-63
2022/02/15 06:54:43;;;;;;;5.13;4.72;;;;;;;;;;5016528;28;20848;-64
2022/02/15 06:57:08;;;;;;;5.70;5.20;;;;;;;;;;5015036;28;20049;-62
2022/02/15 06:59:33;;;;;;;8.48;5.95;;;;;;;;;;5017741;28;20183;-63
2022/02/15 07:01:59;;;;;;;6.50;6.00;;;;;;;;;;5018305;28;20108;-62
2022/02/15 07:04:24;;;;;;;5.78;5.32;;;;;;;;;;5016866;28;20034;-62
2022/02/15 07:06:50;;;;;;;5.78;5.38;;;;;;;;;;5020563;28;20025;-63
2022/02/15 07:09:15;;;;;;;5.65;5.13;;;;;;;;;;5015825;28;20444;-63
2022/02/15 07:11:41;;;;;;;5.63;5.13;;;;;;;;;;5018687;28;20099;-63
2022/02/15 07:14:06;;;;;;;4.80;4.40;;;;;;;;;;5017419;28;20044;-63
2022/02/15 07:16:31;;;;;;;5.57;5.18;;;;;;;;;;5015259;28;20069;-63
2022/02/15 07:18:58;;;;;;;7.68;6.97;;;;;;;;;;5034044;28;20053;-63
2022/02/15 07:21:23;;;;;;;5.72;5.20;;;;;;;;;;5019883;28;20033;-64
2022/02/15 07:23:49;;;;;;;5.57;5.07;;;;;;;;;;5016856;28;20032;-64
2022/02/15 07:26:14;;;;;;;6.07;5.53;;;;;;;;;;5016617;28;20482;-63
2022/02/15 07:28:40;;;;;;;6.18;5.70;;;;;;;;;;5017863;28;20029;-63
2022/02/15 07:31:05;;;;;;;6.57;6.07;;;;;;;;;;5019674;28;20091;-64
2022/02/15 07:33:31;;;;;;;6.70;6.15;;;;;;;;;;5022598;28;20033;-64
2022/02/15 07:35:56;;;;;;;13.65;6.10;;;;;;;;;;5022001;28;20062;-64
2022/02/15 07:38:21;;;;;;;5.85;5.38;;;;;;;;;;5021687;28;20196;-64
2022/02/15 07:40:47;;;;;;;5.00;4.60;;;;;;;;;;5020871;28;20034;-64
2022/02/15 07:43:12;;;;;;;6.13;5.57;;;;;;;;;;5020328;28;20037;-63
2022/02/15 07:45:40;;;;;;;6.80;6.20;;;;;;;;;;5017027;28;20033;-64
2022/02/15 07:48:06;;;;;;;6.05;5.55;;;;;;;;;;5016677;28;20119;-64
2022/02/15 07:50:31;;;;;;;5.68;5.18;;;;;;;;;;5015232;28;20092;-64
2022/02/15 07:52:57;;;;;;;6.25;5.75;;;;;;;;;;5021571;28;20124;-64
2022/02/15 07:55:23;;;;;;;6.05;5.55;;;;;;;;;;5018748;28;20043;-64
2022/02/15 07:57:49;;;;;;;6.30;5.80;;;;;;;;;;5022630;28;20033;-63
2022/02/15 08:00:18;;;;;;;6.78;6.28;;;;;;;;;;5018251;28;20061;-64
2022/02/15 08:02:49;;;;;;;6.03;5.53;;;;;;;;;;5021637;28;20040;-63
2022/02/15 08:05:14;;;;;;;7.00;5.57;;;;;;;;;;5021826;28;20477;-64
2022/02/15 08:07:45;;;;;;;6.03;5.53;;;;;;;;;;5021441;28;20029;-60
2022/02/15 08:10:10;;;;;;;8.27;6.25;;;;;;;;;;5024088;28;20116;-60
2022/02/15 08:12:36;;;;;;;7.57;5.38;;;;;;;;;;5018775;28;20116;-60
2022/02/15 08:15:02;;;;;;;5.80;5.30;;;;;;;;;;5021661;28;20105;-60
2022/02/15 08:17:27;;;;;;;6.88;6.18;;;;;;;;;;5019144;28;20137;-60
2022/02/15 08:19:53;;;;;;;5.20;4.80;;;;;;;;;;5021379;28;20034;-60
2022/02/15 08:22:20;;;;;;;6.22;5.72;;;;;;;;;;5022792;28;20030;-60
2022/02/15 08:24:45;;;;;;;4.95;4.55;;;;;;;;;;5019209;28;20116;-60
2022/02/15 08:27:11;;;;;;;5.18;4.68;;;;;;;;;;5023481;28;20599;-60
2022/02/15 08:29:37;;;;;;;6.88;4.85;;;;;;;;;;5022312;28;20036;-60
2022/02/15 08:32:02;;;;;;;6.53;5.97;;;;;;;;;;5019700;28;20052;-60
2022/02/15 08:34:27;;;;;;;5.72;5.22;;;;;;;;;;5019122;28;20042;-60
2022/02/15 08:36:53;;;;;;;6.60;6.00;;;;;;;;;;5019051;28;20021;-60
2022/02/15 08:39:18;;;;;;;5.63;5.22;;;;;;;;;;5018398;28;20057;-59
2022/02/15 08:41:44;;;;;;;6.35;5.85;;;;;;;;;;5020971;28;20044;-60
2022/02/15 08:44:09;;;;;;;7.55;6.90;;;;;;;;;;5020364;28;20532;-60
2022/02/15 08:46:35;;;;;;;6.10;5.60;;;;;;;;;;5020888;28;20116;-60
2022/02/15 08:49:00;;;;;;;5.47;5.07;;;;;;;;;;5017293;28;20037;-61
2022/02/15 08:51:26;;;;;;;6.38;5.78;;;;;;;;;;5017216;28;20069;-60
2022/02/15 08:53:52;;;;;;;6.22;5.63;;;;;;;;;;5021206;28;20025;-60
2022/02/15 08:56:19;;;;;;;6.43;5.93;;;;;;;;;;5019747;28;20085;-61
2022/02/15 08:58:45;;;;;;;6.88;6.10;;;;;;;;;;5018534;28;20108;-61
2022/02/15 09:01:11;;;;;;;6.40;5.90;;;;;;;;;;5020007;28;20480;-61
2022/02/15 09:03:36;;;;;;;6.82;6.32;;;;;;;;;;5019289;28;20036;-62
2022/02/15 09:06:02;;;;;;;6.13;5.63;;;;;;;;;;5017432;28;20378;-61
2022/02/15 09:08:28;;;;;;;6.30;5.80;;;;;;;;;;5019305;28;20049;-59
2022/02/15 09:10:54;;;;;;;8.32;7.53;;;;;;;;;;5018151;28;20038;-60
2022/02/15 09:13:19;;;;;;;6.05;5.55;;;;;;;;;;5016256;28;20041;-59
2022/02/15 09:15:45;;;;;;;6.32;5.82;;;;;;;;;;5019120;28;20123;-59
2022/02/15 09:18:10;;;;;;;6.80;5.60;;;;;;;;;;5019126;28;20569;-59
2022/02/15 09:20:36;;;;;;;6.03;5.53;;;;;;;;;;5019024;28;20430;-61
2022/02/15 09:23:02;;;;;;;6.13;5.63;;;;;;;;;;5018502;28;20445;-59
2022/02/15 09:25:28;;;;;;;12.40;6.30;;;;;;;;;;5020987;28;20460;-59
2022/02/15 09:27:53;;;;;;;5.72;4.88;;;;;;;;;;5020695;28;20037;-60
2022/02/15 09:30:19;;;;;;;5.75;5.22;;;;;;;;;;5019145;28;20040;-59
2022/02/15 09:32:44;;;;;;;5.38;4.97;;;;;;;;;;5018698;28;20044;-60
2022/02/15 09:35:09;;;;;;;7.63;5.25;;;;;;;;;;5017379;28;20084;-59
2022/02/15 09:37:35;;;;;;;4.28;3.90;;;;;;;;;;5018871;28;20034;-60
2022/02/15 09:40:00;;;;;;;5.68;5.20;;;;;;;;;;5017470;28;20636;-60
2022/02/15 09:42:26;;;;;;;4.90;4.35;;;;;;;;;;5019068;28;20026;-60
2022/02/15 09:44:51;;;;;;;5.63;5.13;;;;;;;;;;5020274;28;20030;-60
2022/02/15 09:47:23;;;;;;;5.03;4.63;;;;;;;;;;5018367;28;20040;-61
2022/02/15 09:49:49;;;;;;;4.25;3.85;;;;;;;;;;5021396;28;20098;-62
2022/02/15 09:52:17;;;;;;;5.55;4.47;;;;;;;;;;5017358;28;20053;-61
2022/02/15 09:54:42;;;;;;;4.38;3.97;;;;;;;;;;5017223;28;20139;-62
2022/02/15 09:57:09;;;;;;;4.13;3.72;;;;;;;;;;5019044;28;20211;-61
2022/02/15 09:59:35;;;;;;;4.10;3.70;;;;;;;;;;5020046;28;20053;-62
2022/02/15 10:02:07;;;;;;;4.88;4.47;;;;;;;;;;5019730;28;20045;-61
2022/02/15 10:04:33;;;;;;;4.70;4.30;;;;;;;;;;5018032;28;20073;-61
2022/02/15 10:07:03;;;;;;;4.70;4.30;;;;;;;;;;5016783;28;20029;-62
2022/02/15 10:09:29;;;;;;;4.50;4.13;;;;;;;;;;5019603;28;20133;-62
2022/02/15 10:12:14;;;;;;;4.25;3.95;;;;;;;;;;5017427;28;20116;-61
2022/02/15 10:14:41;;;;;;;5.00;4.60;;;;;;;;;;5015888;28;20030;-61
2022/02/15 10:17:10;;;;;;;4.60;4.22;;;;;;;;;;5015182;28;20120;-62
2022/02/15 10:19:36;;;;;;;5.10;4.60;;;;;;;;;;5014604;28;20431;-62
2022/02/15 10:22:04;;;;;;;4.55;4.15;;;;;;;;;;5018670;28;20644;-62
2022/02/15 10:24:33;;;;;;;4.88;4.47;;;;;;;;;;5016286;28;20041;-62
2022/02/15 10:27:07;;;;;;;4.25;3.85;;;;;;;;;;5019010;28;20061;-62
2022/02/15 10:29:35;;;;;;;6.13;4.00;;;;;;;;;;5018719;28;20606;-62
2022/02/15 10:32:06;;;;;;;4.50;4.10;;;;;;;;;;5015157;28;20045;-61
2022/02/15 10:34:32;;;;;;;4.90;4.50;;;;;;;;;;5010846;28;20418;-62
2022/02/15 10:37:05;;;;;;;4.18;3.78;;;;;;;;;;5024426;28;20049;-61
2022/02/15 10:39:42;;;;;;;4.57;4.20;;;;;;;;;;5015506;28;20498;-61
2022/02/15 10:42:09;;;;;;;4.20;3.90;;;;;;;;;;5016684;28;20128;-62
2022/02/15 10:44:47;;;;;;;4.53;4.18;;;;;;;;;;5016624;28;20037;-62
2022/02/15 10:47:12;;;;;;;4.50;4.10;;;;;;;;;;5017700;28;20479;-61
2022/02/15 10:49:39;;;;;;;5.05;4.65;;;;;;;;;;5019807;28;20080;-62
2022/02/15 10:52:05;;;;;;;4.30;3.97;;;;;;;;;;5017940;28;20033;-62
2022/02/15 10:54:31;;;;;;;4.10;3.80;;;;;;;;;;5014979;28;20092;-63
2022/02/15 10:56:59;;;;;;;4.20;3.90;;;;;;;;;;5018172;28;20037;-62
2022/02/15 10:59:27;;;;;;;4.95;4.55;;;;;;;;;;5020258;28;20432;-62
2022/02/15 11:01:53;;;;;;;5.25;4.85;;;;;;;;;;5014125;28;20429;-61
2022/02/15 11:04:19;;;;;;;5.68;5.28;;;;;;;;;;5019544;28;20042;-62
2022/02/15 11:06:44;;;;;;;4.85;4.45;;;;;;;;;;5018185;28;20022;-62
2022/02/15 11:09:17;;;;;;;5.05;4.65;;;;;;;;;;5022487;28;20044;-62
2022/02/15 11:12:05;;;;;;;5.15;4.75;;;;;;;;;;5020328;28;20123;-62
2022/02/15 11:14:31;;;;;;;5.70;5.30;;;;;;;;;;5021624;28;20132;-62
2022/02/15 11:17:00;;;;;;;4.90;4.50;;;;;;;;;;5020711;28;20116;-62
2022/02/15 11:19:42;;;;;;;5.47;5.07;;;;;;;;;;5020716;28;20037;-62
2022/02/15 11:22:18;;;;;;;5.55;5.05;;;;;;;;;;5022647;28;20530;-62
2022/02/15 11:24:44;;;;;;;5.05;4.65;;;;;;;;;;5021250;28;20041;-62
2022/02/15 11:27:19;;;;;;;5.30;4.80;;;;;;;;;;5020191;28;20044;-62
2022/02/15 11:29:55;;;;;;;4.25;3.95;;;;;;;;;;5019892;28;20037;-63
2022/02/15 11:32:27;;;;;;;5.05;4.13;;;;;;;;;;5020641;28;20049;-62
2022/02/15 11:34:53;;;;;;;3.80;3.50;;;;;;;;;;5023368;28;20069;-63
2022/02/15 11:37:23;;;;;;;4.85;4.45;;;;;;;;;;5023941;28;20431;-63
2022/02/15 11:40:00;;;;;;;4.00;3.60;;;;;;;;;;5002634;28;20045;-63
2022/02/15 11:42:27;;;;;;;3.38;3.08;;;;;;;;;;5020775;28;20134;-63
2022/02/15 11:44:54;;;;;;;3.78;3.47;;;;;;;;;;5024341;28;20156;-64
2022/02/15 11:47:32;;;;;;;4.07;3.67;;;;;;;;;;5019186;28;20467;-63
2022/02/15 11:50:00;;;;;;;4.47;4.07;;;;;;;;;;5021691;28;20041;-63
2022/02/15 11:52:29;;;;;;;4.13;3.75;;;;;;;;;;5021596;28;20034;-63
2022/02/15 11:55:12;;;;;;;3.60;3.30;;;;;;;;;;5018104;28;20033;-63
2022/02/15 11:57:38;;;;;;;3.78;3.47;;;;;;;;;;5021069;28;20073;-63
2022/02/15 12:00:05;;;;;;;3.90;3.60;;;;;;;;;;5021155;28;20455;-63
2022/02/15 12:02:31;;;;;;;4.28;3.97;;;;;;;;;;5019473;28;20046;-63
2022/02/15 12:05:04;;;;;;;4.35;4.05;;;;;;;;;;5020248;28;20103;-63
2022/02/15 12:07:30;;;;;;;5.05;4.65;;;;;;;;;;5020445;28;20052;-63
2022/02/15 12:09:58;;;;;;;5.28;4.88;;;;;;;;;;5017293;28;20040;-62
2022/02/15 12:12:52;;;;;;;5.00;4.60;;;;;;;;;;5017721;28;20041;-63
2022/02/15 12:15:17;;;;;;;5.22;4.82;;;;;;;;;;5017205;28;20053;-63
2022/02/15 12:17:43;;;;;;;5.03;4.63;;;;;;;;;;5016622;28;20042;-62
2022/02/15 12:20:14;;;;;;;4.95;4.55;;;;;;;;;;5016023;28;20041;-63
2022/02/15 12:22:41;;;;;;;4.30;3.95;;;;;;;;;;5016769;28;20041;-63
2022/02/15 12:25:08;;;;;;;4.95;4.55;;;;;;;;;;5017981;28;20044;-62
2022/02/15 12:27:34;;;;;;;4.72;4.32;;;;;;;;;;5016046;28;20040;-62
2022/02/15 12:30:00;;;;;;;4.80;4.40;;;;;;;;;;5017752;28;20044;-63
2022/02/15 12:32:29;;;;;;;5.05;4.65;;;;;;;;;;5016483;28;20651;-63
2022/02/15 12:34:56;;;;;;;5.03;4.63;;;;;;;;;;5018929;28;20057;-62
2022/02/15 12:37:27;;;;;;;5.15;4.75;;;;;;;;;;5019289;28;20360;-62
2022/02/15 12:39:54;;;;;;;5.53;5.13;;;;;;;;;;5019767;28;20029;-61
2022/02/15 12:42:21;;;;;;;5.47;5.07;;;;;;;;;;5022558;28;20025;-62
2022/02/15 12:45:03;;;;;;;4.70;4.30;;;;;;;;;;5018663;28;20033;-61
2022/02/15 12:47:30;;;;;;;5.35;4.95;;;;;;;;;;5019880;28;20065;-62
2022/02/15 12:49:57;;;;;;;4.72;4.32;;;;;;;;;;5016437;28;20065;-61
2022/02/15 12:52:26;;;;;;;4.30;3.90;;;;;;;;;;5017231;28;20044;-61
2022/02/15 12:54:54;;;;;;;4.35;4.05;;;;;;;;;;5013886;28;20029;-61
2022/02/15 12:57:21;;;;;;;4.30;4.00;;;;;;;;;;5017843;28;20033;-61
2022/02/15 12:59:53;;;;;;;4.80;4.40;;;;;;;;;;5019197;28;20043;-61
2022/02/15 13:02:22;;;;;;;4.90;4.50;;;;;;;;;;5018751;28;20112;-60
2022/02/15 13:04:50;;;;;;;5.65;4.55;;;;;;;;;;5018956;28;20169;-60
2022/02/15 13:07:19;;;;;;;4.55;4.15;;;;;;;;;;5017197;28;20052;-60
2022/02/15 13:09:51;;;;;;;4.15;3.85;;;;;;;;;;5013412;28;20037;-61
2022/02/15 13:12:22;;;;;;;4.35;4.05;;;;;;;;;;5014605;28;20030;-61
2022/02/15 13:14:50;;;;;;;;;;;;;;;;;;5017334;28;20507;-61
2022/02/15 13:17:16;;;;;;;4.20;3.90;;;;;;;;;;5015863;28;19936;-62
2022/02/15 13:19:42;;;;;;;4.85;4.45;;;;;;;;;;5016297;28;20522;-61
2022/02/15 13:22:18;;;;;;;4.88;4.47;;;;;;;;;;5016847;28;20124;-62
2022/02/15 13:25:02;;;;;;;4.25;3.95;;;;;;;;;;5017273;28;20436;-62
2022/02/15 13:27:27;;;;;;;4.90;4.50;;;;;;;;;;5016299;28;20160;-62
2022/02/15 13:29:52;;;;;;;4.07;3.78;;;;;;;;;;5012160;28;20045;-62
2022/02/15 13:32:35;;;;;;;4.05;3.75;;;;;;;;;;5014344;28;20034;-62
2022/02/15 13:35:01;;;;;;;5.00;4.60;;;;;;;;;;5016714;28;20029;-62
2022/02/15 13:37:38;;;;;;;4.10;3.80;;;;;;;;;;5014458;28;20046;-62
2022/02/15 13:40:08;;;;;;;4.60;4.20;;;;;;;;;;5018860;28;20120;-61
2022/02/15 13:42:34;;;;;;;4.80;4.40;;;;;;;;;;5018224;28;20379;-61
2022/02/15 13:44:59;;;;;;;4.15;3.85;;;;;;;;;;5017204;28;20052;-62
2022/02/15 13:47:25;;;;;;;4.82;4.43;;;;;;;;;;5019192;28;20030;-61
2022/02/15 13:49:51;;;;;;;4.63;4.22;;;;;;;;;;5018204;28;20120;-61
2022/02/15 13:52:17;;;;;;;5.15;4.30;;;;;;;;;;5018959;28;20364;-62
2022/02/15 13:54:47;;;;;;;4.03;3.72;;;;;;;;;;5018917;28;20041;-62
2022/02/15 13:57:13;;;;;;;4.32;4.03;;;;;;;;;;5014692;28;20061;-62
2022/02/15 13:59:39;;;;;;;4.82;4.43;;;;;;;;;;5017597;28;20068;-60
2022/02/15 14:02:04;;;;;;;4.50;4.10;;;;;;;;;;5015492;28;20087;-60
2022/02/15 14:04:30;;;;;;;4.40;4.00;;;;;;;;;;5016586;28;20038;-61
2022/02/15 14:06:56;;;;;;;4.65;4.25;;;;;;;;;;5016219;28;20036;-61
2022/02/15 14:09:22;;;;;;;4.00;3.70;;;;;;;;;;5018508;28;20033;-60
2022/02/15 14:11:47;;;;;;;3.95;3.65;;;;;;;;;;5018691;28;20052;-59
2022/02/15 14:14:13;;;;;;;4.72;4.32;;;;;;;;;;5017584;28;20960;-60
2022/02/15 14:16:38;;;;;;;4.82;4.35;;;;;;;;;;5015841;28;20037;-60
2022/02/15 14:19:06;;;;;;;5.00;4.60;;;;;;;;;;5014006;28;20044;-60
2022/02/15 14:21:36;;;;;;;4.05;3.75;;;;;;;;;;5012527;28;20057;-61
2022/02/15 14:24:11;;;;;;;4.57;4.17;;;;;;;;;;5015153;28;20034;-61
2022/02/15 14:26:38;;;;;;;4.78;4.38;;;;;;;;;;4994804;28;20025;-61
2022/02/15 14:29:03;;;;;;;3.65;3.35;;;;;;;;;;5015327;28;20041;-61
2022/02/15 14:31:29;;;;;;;4.28;3.95;;;;;;;;;;5017331;28;20036;-61
2022/02/15 14:33:55;;;;;;;4.68;4.28;;;;;;;;;;5020270;28;20355;-61
2022/02/15 14:36:20;;;;;;;4.05;3.75;;;;;;;;;;5017952;28;20121;-60
2022/02/15 14:38:48;;;;;;;4.40;4.00;;;;;;;;;;5019151;28;20105;-60
2022/02/15 14:41:14;;;;;;;4.55;4.15;;;;;;;;;;5018346;28;20069;-61
2022/02/15 14:43:39;;;;;;;3.97;3.67;;;;;;;;;;5022808;28;20467;-60
2022/02/15 14:46:07;;;;;;;4.57;4.20;;;;;;;;;;5019770;28;20030;-60
2022/02/15 14:48:32;;;;;;;3.88;3.58;;;;;;;;;;5021029;28;20039;-61